createdAt,value
2018-12-01T00:00:32.883Z,8.50
2018-12-01T00:03:01.326Z,6.90
2018-12-01T00:05:50.308Z,7.63
2018-12-01T00:08:18.659Z,7.77
2018-12-01T00:10:47.232Z,8.80
2018-12-01T00:13:15.574Z,8.97
2018-12-01T00:15:43.923Z,7.27
2018-12-01T00:18:12.313Z,6.70
2018-12-01T00:20:40.632Z,8.57
2018-12-01T00:23:08.972Z,6.97
2018-12-01T00:25:37.346Z,6.43
2018-12-01T00:28:05.891Z,7.03
2018-12-01T00:30:34.217Z,5.47
2018-12-01T00:33:02.783Z,6.33
2018-12-01T00:35:31.092Z,5.90
2018-12-01T00:37:59.453Z,6.57
2018-12-01T00:40:27.824Z,6.53
2018-12-01T00:42:56.143Z,5.97
2018-12-01T00:45:25.274Z,6.77
2018-12-01T00:47:53.864Z,7.03
2018-12-01T00:50:23.336Z,7.60
2018-12-01T00:52:52.452Z,7.20
2018-12-01T00:55:20.934Z,7.53
2018-12-01T00:57:49.289Z,7.63
2018-12-01T01:00:21.053Z,6.73
2018-12-01T01:02:55.527Z,7.03
2018-12-01T01:05:30.943Z,8.30
2018-12-01T01:08:00.012Z,7.20
2018-12-01T01:10:29.343Z,6.90
2018-12-01T01:12:57.675Z,7.17
2018-12-01T01:15:26.067Z,4.90
2018-12-01T01:17:54.446Z,7.77
2018-12-01T01:20:23.524Z,7.50
2018-12-01T01:22:51.972Z,8.10
2018-12-01T01:25:20.371Z,8.10
2018-12-01T01:27:48.772Z,8.90
2018-12-01T01:30:18.999Z,8.20
2018-12-01T01:32:47.532Z,10.27
2018-12-01T01:35:15.863Z,9.77
2018-12-01T01:37:44.253Z,8.57
2018-12-01T01:40:14.543Z,7.67
2018-12-01T01:42:42.881Z,7.37
2018-12-01T01:45:13.365Z,8.60
2018-12-01T01:47:56.584Z,8.53
2018-12-01T01:50:25.003Z,8.57
2018-12-01T01:52:53.393Z,9.27
2018-12-01T01:55:21.705Z,9.43
2018-12-01T01:57:50.077Z,9.33
2018-12-01T02:00:20.152Z,9.30
2018-12-01T02:02:50.371Z,9.73
2018-12-01T02:05:21.337Z,9.13
2018-12-01T02:07:49.811Z,9.53
2018-12-01T02:10:18.819Z,9.57
2018-12-01T02:12:47.161Z,10.00
2018-12-01T02:15:15.629Z,8.70
2018-12-01T02:17:43.992Z,9.43
2018-12-01T02:20:13.325Z,8.83
2018-12-01T02:22:41.790Z,8.60
2018-12-01T02:25:11.213Z,8.23
2018-12-01T02:27:39.597Z,7.97
2018-12-01T02:30:12.782Z,8.00
2018-12-01T02:32:41.192Z,7.83
2018-12-01T02:35:12.611Z,7.80
2018-12-01T02:37:40.987Z,8.70
2018-12-01T02:40:11.357Z,8.63
2018-12-01T02:42:40.009Z,9.93
2018-12-01T02:45:19.464Z,8.37
2018-12-01T02:47:47.829Z,5.10
2018-12-01T02:50:20.694Z,8.67
2018-12-01T02:52:49.009Z,7.57
2018-12-01T02:55:17.392Z,7.80
2018-12-01T02:57:45.748Z,8.00
2018-12-01T03:00:14.092Z,8.10
2018-12-01T03:02:42.454Z,7.03
2018-12-01T03:05:11.758Z,7.30
2018-12-01T03:07:40.280Z,7.20
2018-12-01T03:10:13.488Z,6.50
2018-12-01T03:12:42.144Z,6.90
2018-12-01T03:15:13.418Z,7.37
2018-12-01T03:17:41.788Z,8.40
2018-12-01T03:20:14.663Z,8.27
2018-12-01T03:22:43.012Z,8.00
2018-12-01T03:25:19.453Z,8.43
2018-12-01T03:27:48.549Z,7.90
2018-12-01T03:30:19.495Z,8.43
2018-12-01T03:32:48.698Z,8.03
2018-12-01T03:35:17.232Z,8.03
2018-12-01T03:37:46.484Z,7.93
2018-12-01T03:40:15.262Z,8.10
2018-12-01T03:42:43.652Z,8.23
2018-12-01T03:45:14.761Z,7.63
2018-12-01T03:47:43.151Z,8.07
2018-12-01T03:50:13.164Z,8.30
2018-12-01T03:52:41.532Z,8.10
2018-12-01T03:55:23.580Z,8.20
2018-12-01T03:57:51.893Z,8.43
2018-12-01T04:00:33.670Z,7.77
2018-12-01T04:03:02.696Z,7.07
2018-12-01T04:05:31.251Z,7.50
2018-12-01T04:07:59.792Z,7.10
2018-12-01T04:10:28.209Z,7.77
2018-12-01T04:12:56.696Z,6.90
2018-12-01T04:15:25.596Z,8.67
2018-12-01T04:17:53.955Z,9.60
2018-12-01T04:20:22.413Z,10.70
2018-12-01T04:22:50.791Z,10.70
2018-12-01T04:25:19.216Z,10.97
2018-12-01T04:27:47.570Z,10.60
2018-12-01T04:30:17.040Z,9.80
2018-12-01T04:32:45.415Z,11.23
2018-12-01T04:35:16.300Z,10.57
2018-12-01T04:37:45.628Z,9.57
2018-12-01T04:40:14.059Z,9.20
2018-12-01T04:42:42.610Z,10.10
2018-12-01T04:45:10.948Z,10.87
2018-12-01T04:47:39.494Z,9.73
2018-12-01T04:50:09.264Z,10.10
2018-12-01T04:52:37.640Z,9.50
2018-12-01T04:55:07.833Z,9.60
2018-12-01T04:57:36.157Z,8.60
2018-12-01T05:00:06.540Z,11.23
2018-12-01T05:02:34.921Z,11.57
2018-12-01T05:05:03.808Z,11.10
2018-12-01T05:07:32.129Z,10.50
2018-12-01T05:10:00.444Z,9.83
2018-12-01T05:12:28.930Z,8.80
2018-12-01T05:14:57.273Z,8.03
2018-12-01T05:17:25.617Z,9.00
2018-12-01T05:19:53.912Z,9.37
2018-12-01T05:22:22.293Z,8.57
2018-12-01T05:24:50.615Z,8.47
2018-12-01T05:27:18.934Z,8.57
2018-12-01T05:29:47.250Z,7.73
2018-12-01T05:32:15.580Z,7.67
2018-12-01T05:34:43.928Z,7.50
2018-12-01T05:37:12.248Z,6.23
2018-12-01T05:39:40.629Z,7.67
2018-12-01T05:42:09.077Z,7.83
2018-12-01T05:44:37.383Z,7.53
2018-12-01T05:47:05.856Z,8.33
2018-12-01T05:49:34.167Z,8.97
2018-12-01T05:52:02.567Z,9.07
2018-12-01T05:54:30.972Z,6.73
2018-12-01T05:56:59.280Z,8.10
2018-12-01T05:59:27.600Z,8.20
2018-12-01T06:01:55.995Z,8.00
2018-12-01T06:04:24.328Z,8.10
2018-12-01T06:06:52.693Z,7.93
2018-12-01T06:09:21.037Z,7.80
2018-12-01T06:11:49.367Z,8.03
2018-12-01T06:14:17.672Z,7.23
2018-12-01T06:16:45.976Z,7.60
2018-12-01T06:19:14.296Z,6.90
2018-12-01T06:21:42.624Z,7.10
2018-12-01T06:24:10.938Z,7.20
2018-12-01T06:26:39.285Z,4.27
2018-12-01T06:29:07.609Z,4.70
2018-12-01T06:31:35.970Z,7.17
2018-12-01T06:34:04.405Z,6.93
2018-12-01T06:36:32.772Z,6.67
2018-12-01T06:39:01.144Z,6.63
2018-12-01T06:41:29.492Z,7.20
2018-12-01T06:43:57.856Z,6.77
2018-12-01T06:46:26.232Z,8.33
2018-12-01T06:48:54.584Z,9.23
2018-12-01T06:51:22.967Z,11.27
2018-12-01T06:53:51.306Z,8.60
2018-12-01T06:56:19.692Z,8.30
2018-12-01T06:58:48.068Z,8.73
2018-12-01T07:01:16.381Z,9.20
2018-12-01T07:03:44.732Z,7.27
2018-12-01T07:06:13.063Z,8.40
2018-12-01T07:08:41.371Z,9.33
2018-12-01T07:11:09.712Z,9.60
2018-12-01T07:13:38.125Z,12.60
2018-12-01T07:16:06.709Z,9.20
2018-12-01T07:18:46.062Z,18.30
2018-12-01T07:21:14.410Z,18.83
2018-12-01T07:23:42.736Z,18.20
2018-12-01T07:26:11.140Z,11.80
2018-12-01T07:28:39.485Z,8.37
2018-12-01T07:31:07.794Z,7.03
2018-12-01T07:33:36.304Z,7.50
2018-12-01T07:36:05.340Z,7.13
2018-12-01T07:38:33.696Z,7.70
2018-12-01T07:41:02.120Z,8.13
2018-12-01T07:43:30.444Z,7.67
2018-12-01T07:45:58.872Z,4.23
2018-12-01T07:48:28.120Z,7.70
2018-12-01T07:50:56.474Z,6.87
2018-12-01T07:53:24.856Z,7.87
2018-12-01T07:55:53.201Z,7.10
2018-12-01T07:58:21.586Z,6.80
2018-12-01T08:00:49.931Z,6.80
2018-12-01T08:03:18.258Z,7.23
2018-12-01T08:05:46.595Z,6.97
2018-12-01T08:08:14.924Z,6.40
2018-12-01T08:10:43.256Z,6.50
2018-12-01T08:13:11.625Z,5.90
2018-12-01T08:15:39.908Z,6.63
2018-12-01T08:18:08.224Z,6.60
2018-12-01T08:20:36.630Z,8.87
2018-12-01T08:23:05.258Z,6.43
2018-12-01T08:25:33.580Z,4.70
2018-12-01T08:28:01.916Z,5.20
2018-12-01T08:30:31.888Z,5.37
2018-12-01T08:33:00.236Z,5.23
2018-12-01T08:35:29.511Z,5.10
2018-12-01T08:37:57.908Z,6.10
2018-12-01T08:40:27.292Z,5.47
2018-12-01T08:42:55.592Z,5.60
2018-12-01T08:45:23.909Z,6.03
2018-12-01T08:47:52.282Z,5.70
2018-12-01T08:50:21.556Z,5.40
2018-12-01T08:52:50.037Z,5.63
2018-12-01T08:55:20.138Z,4.13
2018-12-01T08:57:48.697Z,5.80
2018-12-01T09:00:29.534Z,5.00
2018-12-01T09:03:01.209Z,5.30
2018-12-01T09:05:29.553Z,5.57
2018-12-01T09:07:57.990Z,5.43
2018-12-01T09:10:26.388Z,5.50
2018-12-01T09:12:54.743Z,5.10
2018-12-01T09:15:23.122Z,5.20
2018-12-01T09:17:51.526Z,5.50
2018-12-01T09:20:20.221Z,6.20
2018-12-01T09:22:48.608Z,5.63
2018-12-01T09:25:17.851Z,6.23
2018-12-01T09:27:46.466Z,6.10
2018-12-01T09:30:17.898Z,5.77
2018-12-01T09:32:46.295Z,4.93
2018-12-01T09:35:15.032Z,5.70
2018-12-01T09:37:43.384Z,5.73
2018-12-01T09:40:13.604Z,5.30
2018-12-01T09:42:42.192Z,5.30
2018-12-01T09:45:25.572Z,5.07
2018-12-01T09:47:55.053Z,5.33
2018-12-01T09:50:23.416Z,5.63
2018-12-01T09:52:52.928Z,5.00
2018-12-01T09:55:22.497Z,5.23
2018-12-01T09:57:50.907Z,5.53
2018-12-01T10:00:27.116Z,4.83
2018-12-01T10:02:55.504Z,4.43
2018-12-01T10:05:23.834Z,4.73
2018-12-01T10:07:52.164Z,5.80
2018-12-01T10:10:21.597Z,5.50
2018-12-01T10:12:51.162Z,5.93
2018-12-01T10:15:22.298Z,5.93
2018-12-01T10:17:50.657Z,5.57
2018-12-01T10:20:27.097Z,6.07
2018-12-01T10:22:55.525Z,5.80
2018-12-01T10:25:23.847Z,5.57
2018-12-01T10:27:52.274Z,5.80
2018-12-01T10:30:21.248Z,6.63
2018-12-01T10:32:50.700Z,6.20
2018-12-01T10:35:21.764Z,8.30
2018-12-01T10:37:52.524Z,7.23
2018-12-01T10:40:20.940Z,5.93
2018-12-01T10:42:49.293Z,6.53
2018-12-01T10:45:18.792Z,6.80
2018-12-01T10:47:47.244Z,7.00
2018-12-01T10:50:23.217Z,6.20
2018-12-01T10:52:53.393Z,6.93
2018-12-01T10:55:31.463Z,8.90
2018-12-01T10:58:11.996Z,9.80
2018-12-01T11:00:46.549Z,11.10
2018-12-01T11:03:20.357Z,5.50
2018-12-01T11:05:48.730Z,6.80
2018-12-01T11:08:18.437Z,8.03
2018-12-01T11:10:47.259Z,10.47
2018-12-01T11:13:15.687Z,9.03
2018-12-01T11:15:44.018Z,11.47
2018-12-01T11:18:12.471Z,6.63
2018-12-01T11:20:40.889Z,7.50
2018-12-01T11:23:09.350Z,6.10
2018-12-01T11:25:38.229Z,6.30
2018-12-01T11:28:07.438Z,6.10
2018-12-01T11:30:37.978Z,5.87
2018-12-01T11:33:06.440Z,7.70
2018-12-01T11:35:34.931Z,4.77
2018-12-01T11:38:03.360Z,5.73
2018-12-01T11:40:31.684Z,3.70
2018-12-01T11:43:00.169Z,7.13
2018-12-01T11:45:28.613Z,8.20
2018-12-01T11:47:56.991Z,9.03
2018-12-01T11:50:25.490Z,9.93
2018-12-01T11:52:54.731Z,6.10
2018-12-01T11:55:23.656Z,4.63
2018-12-01T11:57:52.897Z,7.47
2018-12-01T12:00:25.237Z,6.50
2018-12-01T12:02:53.885Z,7.30
2018-12-01T12:05:22.291Z,5.00
2018-12-01T12:08:01.673Z,6.97
2018-12-01T12:10:30.167Z,6.97
2018-12-01T12:12:58.597Z,5.13
2018-12-01T12:15:27.293Z,7.03
2018-12-01T12:18:00.679Z,6.57
2018-12-01T12:20:29.720Z,6.77
2018-12-01T12:22:58.264Z,5.00
2018-12-01T12:25:26.700Z,6.70
2018-12-01T12:27:55.085Z,6.40
2018-12-01T12:30:26.003Z,5.90
2018-12-01T12:32:52.020Z,6.67
2018-12-01T12:35:20.454Z,6.80
2018-12-01T12:37:49.201Z,6.17
2018-12-01T12:40:22.305Z,5.53
2018-12-01T12:42:51.395Z,6.50
2018-12-01T12:45:19.732Z,6.30
2018-12-01T12:47:48.052Z,6.80
2018-12-01T12:50:17.840Z,6.27
2018-12-01T12:52:47.904Z,6.20
2018-12-01T12:55:20.759Z,6.30
2018-12-01T12:57:49.112Z,5.93
2018-12-01T13:00:25.644Z,6.40
2018-12-01T13:02:55.368Z,5.80
2018-12-01T13:05:27.784Z,5.90
2018-12-01T13:07:56.133Z,4.30
2018-12-01T13:10:25.244Z,5.97
2018-12-01T13:12:53.578Z,6.33
2018-12-01T13:15:21.982Z,5.70
2018-12-01T13:17:50.372Z,5.87
2018-12-01T13:20:22.403Z,5.97
2018-12-01T13:22:51.963Z,5.40
2018-12-01T13:25:20.356Z,5.27
2018-12-01T13:27:52.505Z,5.70
2018-12-01T13:30:23.992Z,4.80
2018-12-01T13:32:52.479Z,4.67
2018-12-01T13:35:21.010Z,5.87
2018-12-01T13:37:49.400Z,5.43
2018-12-01T13:40:17.771Z,5.07
2018-12-01T13:42:46.369Z,5.30
2018-12-01T13:45:15.657Z,3.77
2018-12-01T13:47:44.444Z,11.10
2018-12-01T13:50:18.383Z,5.03
2018-12-01T13:52:49.454Z,6.60
2018-12-01T13:55:17.841Z,5.23
2018-12-01T13:57:46.229Z,4.87
2018-12-01T14:00:22.295Z,3.40
2018-12-01T14:02:50.616Z,6.53
2018-12-01T14:05:19.065Z,6.57
2018-12-01T14:07:47.716Z,5.20
2018-12-01T14:10:25.748Z,5.00
2018-12-01T14:12:56.368Z,5.50
2018-12-01T14:15:24.807Z,3.93
2018-12-01T14:17:53.244Z,4.33
2018-12-01T14:20:21.681Z,5.77
2018-12-01T14:22:50.427Z,5.53
2018-12-01T14:25:20.728Z,4.03
2018-12-01T14:27:57.445Z,5.27
2018-12-01T14:30:25.844Z,5.20
2018-12-01T14:32:54.292Z,4.63
2018-12-01T14:35:26.668Z,6.00
2018-12-01T14:38:02.676Z,6.03
2018-12-01T14:40:31.317Z,5.80
2018-12-01T14:42:59.375Z,5.43
2018-12-01T14:45:27.693Z,6.23
2018-12-01T14:47:56.633Z,5.67
2018-12-01T14:50:24.957Z,6.27
2018-12-01T14:52:53.313Z,6.60
2018-12-01T14:55:21.752Z,5.07
2018-12-01T14:57:50.501Z,4.70
2018-12-01T15:00:22.757Z,5.30
2018-12-01T15:02:51.707Z,5.73
2018-12-01T15:05:20.103Z,3.33
2018-12-01T15:07:49.065Z,5.77
2018-12-01T15:10:20.042Z,5.30
2018-12-01T15:12:48.528Z,5.60
2018-12-01T15:15:18.134Z,5.00
2018-12-01T15:17:46.485Z,5.90
2018-12-01T15:20:16.708Z,6.40
2018-12-01T15:22:49.145Z,5.43
2018-12-01T15:25:18.461Z,6.97
2018-12-01T15:27:46.873Z,6.27
2018-12-01T15:30:18.212Z,4.23
2018-12-01T15:32:51.264Z,5.07
2018-12-01T15:35:19.780Z,4.87
2018-12-01T15:37:48.243Z,4.80
2018-12-01T15:40:18.329Z,5.10
2018-12-01T15:42:46.889Z,4.87
2018-12-01T15:45:20.104Z,4.10
2018-12-01T15:47:48.528Z,4.67
2018-12-01T15:50:17.806Z,4.27
2018-12-01T15:52:48.553Z,4.63
2018-12-01T15:55:16.977Z,5.27
2018-12-01T15:57:45.460Z,4.47
2018-12-01T16:00:19.852Z,4.40
2018-12-01T16:02:48.345Z,2.30
2018-12-01T16:05:18.428Z,4.33
2018-12-01T16:07:47.509Z,4.30
2018-12-01T16:10:16.940Z,4.50
2018-12-01T16:12:46.497Z,4.43
2018-12-01T16:15:18.107Z,3.47
2018-12-01T16:17:46.605Z,3.87
2018-12-01T16:20:15.192Z,4.43
2018-12-01T16:22:45.216Z,4.73
2018-12-01T16:25:14.770Z,4.93
2018-12-01T16:27:43.971Z,5.17
2018-12-01T16:30:24.163Z,5.10
2018-12-01T16:32:59.529Z,5.53
2018-12-01T16:35:27.905Z,5.57
2018-12-01T16:37:56.462Z,5.30
2018-12-01T16:40:32.831Z,5.33
2018-12-01T16:43:02.612Z,4.70
2018-12-01T16:45:30.989Z,4.83
2018-12-01T16:47:59.364Z,4.50
2018-12-01T16:50:27.716Z,3.00
2018-12-01T16:52:56.060Z,3.43
2018-12-01T16:55:24.548Z,4.40
2018-12-01T16:57:53.019Z,4.83
2018-12-01T17:00:21.380Z,3.83
2018-12-01T17:02:53.064Z,5.00
2018-12-01T17:05:22.303Z,5.00
2018-12-01T17:07:50.712Z,4.90
2018-12-01T17:10:20.077Z,3.97
2018-12-01T17:12:53.655Z,5.27
2018-12-01T17:15:22.368Z,4.53
2018-12-01T17:17:50.791Z,4.73
2018-12-01T17:20:19.440Z,4.03
2018-12-01T17:22:53.050Z,4.63
2018-12-01T17:25:28.020Z,5.03
2018-12-01T17:28:01.123Z,4.27
2018-12-01T17:30:30.152Z,4.70
2018-12-01T17:32:59.417Z,5.57
2018-12-01T17:35:29.915Z,3.30
2018-12-01T17:37:59.508Z,4.20
2018-12-01T17:41:36.192Z,6.07
2018-12-01T17:44:07.197Z,3.83
2018-12-01T17:46:35.576Z,5.70
2018-12-01T17:49:04.044Z,4.37
2018-12-01T17:51:32.372Z,5.60
2018-12-01T17:54:04.228Z,3.10
2018-12-01T17:56:32.612Z,5.30
2018-12-01T17:59:01.064Z,4.27
2018-12-01T18:01:29.425Z,4.13
2018-12-01T18:03:57.760Z,3.77
2018-12-01T18:06:26.129Z,4.53
2018-12-01T18:08:54.501Z,4.03
2018-12-01T18:11:22.892Z,3.77
2018-12-01T18:13:51.239Z,2.87
2018-12-01T18:16:19.878Z,4.87
2018-12-01T18:18:48.353Z,4.63
2018-12-01T18:21:16.679Z,3.27
2018-12-01T18:23:45.028Z,4.93
2018-12-01T18:26:13.372Z,5.50
2018-12-01T18:28:44.833Z,3.10
2018-12-01T18:31:22.732Z,4.80
2018-12-01T18:33:58.340Z,3.50
2018-12-01T18:36:26.814Z,4.10
2018-12-01T18:38:55.261Z,5.33
2018-12-01T18:41:23.645Z,5.00
2018-12-01T18:43:52.017Z,5.00
2018-12-01T18:46:20.353Z,5.23
2018-12-01T18:48:48.768Z,6.03
2018-12-01T18:51:17.156Z,5.60
2018-12-01T18:53:45.503Z,3.87
2018-12-01T18:56:13.881Z,3.43
2018-12-01T18:58:42.251Z,2.93
2018-12-01T19:01:11.021Z,5.50
2018-12-01T19:03:39.368Z,5.97
2018-12-01T19:06:08.560Z,5.60
2018-12-01T19:08:40.429Z,5.80
2018-12-01T19:11:08.811Z,3.73
2018-12-01T19:13:37.200Z,5.40
2018-12-01T19:16:06.283Z,4.47
2018-12-01T19:18:34.726Z,5.43
2018-12-01T19:21:03.134Z,5.60
2018-12-01T19:23:31.524Z,5.70
2018-12-01T19:25:59.934Z,5.03
2018-12-01T19:28:28.296Z,5.20
2018-12-01T19:30:56.626Z,5.10
2018-12-01T19:33:24.962Z,4.60
2018-12-01T19:35:53.920Z,2.83
2018-12-01T19:38:26.500Z,4.83
2018-12-01T19:40:55.646Z,4.93
2018-12-01T19:43:23.963Z,5.60
2018-12-01T19:45:52.288Z,4.70
2018-12-01T19:48:20.624Z,5.10
2018-12-01T19:50:48.972Z,4.60
2018-12-01T19:53:17.967Z,4.67
2018-12-01T19:55:47.500Z,4.90
2018-12-01T19:58:17.084Z,5.40
2018-12-01T20:00:50.917Z,4.57
2018-12-01T20:03:20.535Z,4.40
2018-12-01T20:05:48.896Z,4.87
2018-12-01T20:08:18.352Z,4.70
2018-12-01T20:10:54.015Z,4.83
2018-12-01T20:13:40.345Z,4.63
2018-12-01T20:16:19.900Z,4.50
2018-12-01T20:18:48.431Z,4.97
2018-12-01T20:21:16.796Z,5.00
2018-12-01T20:23:45.163Z,4.10
2018-12-01T20:26:13.504Z,5.27
2018-12-01T20:28:41.907Z,4.33
2018-12-01T20:31:10.328Z,3.67
2018-12-01T20:33:38.639Z,4.60
2018-12-01T20:36:09.984Z,4.37
2018-12-01T20:38:42.633Z,4.93
2018-12-01T20:41:11.052Z,4.97
2018-12-01T20:43:39.383Z,3.53
2018-12-01T20:46:07.753Z,5.03
2018-12-01T20:48:36.096Z,4.37
2018-12-01T20:51:05.114Z,4.70
2018-12-01T20:53:36.943Z,4.00
2018-12-01T20:56:12.814Z,4.70
2018-12-01T20:58:41.163Z,5.17
2018-12-01T21:01:09.537Z,4.67
2018-12-01T21:03:37.929Z,5.30
2018-12-01T21:06:07.412Z,4.23
2018-12-01T21:08:37.388Z,4.30
2018-12-01T21:11:09.828Z,5.03
2018-12-01T21:13:38.189Z,3.07
2018-12-01T21:16:06.964Z,4.60
2018-12-01T21:18:35.401Z,4.83
2018-12-01T21:21:03.745Z,5.00
2018-12-01T21:23:32.091Z,4.70
2018-12-01T21:26:00.456Z,5.23
2018-12-01T21:28:28.820Z,4.67
2018-12-01T21:30:57.152Z,4.90
2018-12-01T21:33:28.344Z,4.60
2018-12-01T21:35:56.731Z,4.93
2018-12-01T21:38:26.308Z,5.07
2018-12-01T21:40:55.600Z,5.50
2018-12-01T21:43:23.932Z,4.07
2018-12-01T21:45:52.312Z,5.40
2018-12-01T21:48:20.689Z,4.77
2018-12-01T21:50:49.240Z,5.17
2018-12-01T21:53:21.155Z,3.77
2018-12-01T21:55:49.847Z,5.50
2018-12-01T21:58:18.229Z,6.30
2018-12-01T22:00:50.294Z,6.17
2018-12-01T22:03:19.164Z,4.27
2018-12-01T22:05:49.329Z,5.30
2018-12-01T22:08:18.069Z,5.50
2018-12-01T22:10:50.913Z,5.53
2018-12-01T22:13:19.391Z,1.87
2018-12-01T22:15:47.860Z,4.47
2018-12-01T22:18:16.293Z,5.00
2018-12-01T22:20:44.769Z,4.67
2018-12-01T22:23:13.217Z,4.90
2018-12-01T22:25:41.630Z,5.43
2018-12-01T22:28:11.477Z,5.73
2018-12-01T22:30:40.005Z,5.73
2018-12-01T22:33:16.255Z,5.37
2018-12-01T22:35:46.242Z,4.50
2018-12-01T22:38:14.614Z,6.00
2018-12-01T22:40:43.348Z,5.27
2018-12-01T22:43:11.676Z,2.77
2018-12-01T22:45:40.032Z,3.63
2018-12-01T22:48:12.837Z,4.90
2018-12-01T22:50:42.692Z,3.90
2018-12-01T22:53:11.056Z,4.47
2018-12-01T22:55:40.578Z,5.20
2018-12-01T22:58:11.616Z,5.53
2018-12-01T23:00:49.064Z,4.50
2018-12-01T23:03:17.536Z,4.77
2018-12-01T23:05:45.891Z,5.23
2018-12-01T23:08:15.292Z,5.00
2018-12-01T23:10:43.657Z,5.27
2018-12-01T23:13:11.985Z,5.40
2018-12-01T23:15:40.348Z,5.07
2018-12-01T23:18:10.376Z,4.60
2018-12-01T23:20:39.540Z,3.60
2018-12-01T23:23:07.971Z,5.77
2018-12-01T23:25:36.344Z,4.90
2018-12-01T23:28:05.156Z,5.07
2018-12-01T23:30:33.527Z,5.40
2018-12-01T23:33:05.741Z,4.83
2018-12-01T23:35:34.067Z,5.87
2018-12-01T23:38:02.387Z,5.33
2018-12-01T23:40:30.736Z,5.07
2018-12-01T23:42:59.171Z,5.57
2018-12-01T23:45:28.386Z,4.90
2018-12-01T23:47:56.711Z,5.50
2018-12-01T23:50:25.884Z,4.63
2018-12-01T23:52:57.312Z,4.60
2018-12-01T23:55:25.698Z,5.13
2018-12-01T23:57:54.031Z,5.50
